createdAt,value
2023-05-09T00:00:24.144Z,53.44
2023-05-09T00:01:24.039Z,54.96
2023-05-09T00:02:24.130Z,49.73
2023-05-09T00:03:24.028Z,48.74
2023-05-09T00:04:24.091Z,51.29
2023-05-09T00:05:24.042Z,53.69
2023-05-09T00:06:23.999Z,51.08
2023-05-09T00:07:24.006Z,53.58
2023-05-09T00:08:23.985Z,52.69
2023-05-09T00:09:23.998Z,52.71
2023-05-09T00:10:23.986Z,51.00
2023-05-09T00:11:23.987Z,53.23
2023-05-09T00:12:23.972Z,49.93
2023-05-09T00:13:24.038Z,48.82
2023-05-09T00:14:23.955Z,52.23
2023-05-09T00:15:23.971Z,52.62
2023-05-09T00:16:24.156Z,53.90
2023-05-09T00:17:23.950Z,54.49
2023-05-09T00:18:23.926Z,49.14
2023-05-09T00:19:24.360Z,48.71
2023-05-09T00:20:23.919Z,53.87
2023-05-09T00:21:23.905Z,50.23
2023-05-09T00:22:23.896Z,52.88
2023-05-09T00:23:23.916Z,53.54
2023-05-09T00:24:23.894Z,55.73
2023-05-09T00:25:23.905Z,51.36
2023-05-09T00:26:23.886Z,53.85
2023-05-09T00:27:23.873Z,55.47
2023-05-09T00:28:23.858Z,48.59
2023-05-09T00:29:23.854Z,50.38
2023-05-09T00:30:23.873Z,51.67
2023-05-09T00:31:23.849Z,53.67
2023-05-09T00:32:23.943Z,53.13
2023-05-09T00:33:23.825Z,50.81
2023-05-09T00:34:23.828Z,47.99
2023-05-09T00:35:23.839Z,49.96
2023-05-09T00:36:23.806Z,55.52
2023-05-09T00:37:23.790Z,55.56
2023-05-09T00:38:23.808Z,54.34
2023-05-09T00:39:23.795Z,56.16
2023-05-09T00:40:23.786Z,54.86
2023-05-09T00:41:23.789Z,53.78
2023-05-09T00:42:23.782Z,50.23
2023-05-09T00:43:23.762Z,54.31
2023-05-09T00:44:23.748Z,55.17
2023-05-09T00:45:23.747Z,54.02
2023-05-09T00:46:23.784Z,52.67
2023-05-09T00:47:23.789Z,53.74
2023-05-09T00:48:23.820Z,48.58
2023-05-09T00:49:23.721Z,48.06
2023-05-09T00:50:23.711Z,52.06
2023-05-09T00:51:23.709Z,51.88
2023-05-09T00:52:23.697Z,57.86
2023-05-09T00:53:23.716Z,53.69
2023-05-09T00:54:23.687Z,53.09
2023-05-09T00:55:23.690Z,51.94
2023-05-09T00:56:23.685Z,53.50
2023-05-09T00:57:23.674Z,51.61
2023-05-09T00:58:23.666Z,54.44
2023-05-09T00:59:23.678Z,52.04
2023-05-09T01:00:23.658Z,56.08
2023-05-09T01:01:23.688Z,55.01
2023-05-09T01:02:23.696Z,57.26
2023-05-09T01:03:23.732Z,53.91
2023-05-09T01:04:23.734Z,52.97
2023-05-09T01:05:23.621Z,56.40
2023-05-09T01:06:23.610Z,55.82
2023-05-09T01:07:23.618Z,55.84
2023-05-09T01:08:24.630Z,53.76
2023-05-09T01:09:23.589Z,55.98
2023-05-09T01:10:23.590Z,54.17
2023-05-09T01:11:23.582Z,56.99
2023-05-09T01:12:23.584Z,56.42
2023-05-09T01:13:23.735Z,53.20
2023-05-09T01:14:23.566Z,52.75
2023-05-09T01:15:23.565Z,53.97
2023-05-09T01:16:23.639Z,54.29
2023-05-09T01:17:23.562Z,54.26
2023-05-09T01:18:23.547Z,52.17
2023-05-09T01:19:23.531Z,53.03
2023-05-09T01:20:23.632Z,51.93
2023-05-09T01:21:23.535Z,52.36
2023-05-09T01:22:23.526Z,54.35
2023-05-09T01:23:23.515Z,53.82
2023-05-09T01:24:23.499Z,51.59
2023-05-09T01:25:23.497Z,53.76
2023-05-09T01:26:23.501Z,52.29
2023-05-09T01:27:23.491Z,53.01
2023-05-09T01:28:23.499Z,55.68
2023-05-09T01:29:23.487Z,55.27
2023-05-09T01:30:23.465Z,52.47
2023-05-09T01:31:23.499Z,53.94
2023-05-09T01:32:23.479Z,50.30
2023-05-09T01:33:23.449Z,52.07
2023-05-09T01:34:23.460Z,52.52
2023-05-09T01:35:23.427Z,51.77
2023-05-09T01:36:23.528Z,53.18
2023-05-09T01:37:23.414Z,50.45
2023-05-09T01:38:23.415Z,52.41
2023-05-09T01:39:23.420Z,51.63
2023-05-09T01:40:23.426Z,54.29
2023-05-09T01:41:23.403Z,53.25
2023-05-09T01:42:23.392Z,54.97
2023-05-09T01:43:23.384Z,55.15
2023-05-09T01:44:23.391Z,56.45
2023-05-09T01:45:23.379Z,54.05
2023-05-09T01:46:23.412Z,49.86
2023-05-09T01:47:23.381Z,54.25
2023-05-09T01:48:23.347Z,54.03
2023-05-09T01:49:23.355Z,55.57
2023-05-09T01:50:23.364Z,55.59
2023-05-09T01:51:23.336Z,56.79
2023-05-09T01:52:23.420Z,55.44
2023-05-09T01:53:23.318Z,52.04
2023-05-09T01:54:23.310Z,55.38
2023-05-09T01:55:23.316Z,50.02
2023-05-09T01:56:23.300Z,50.02
2023-05-09T01:57:23.299Z,52.63
2023-05-09T01:58:23.282Z,54.77
2023-05-09T01:59:23.271Z,51.99
2023-05-09T02:00:23.279Z,52.25
2023-05-09T02:01:23.304Z,55.82
2023-05-09T02:02:23.299Z,54.85
2023-05-09T02:03:23.280Z,56.86
2023-05-09T02:04:23.243Z,53.85
2023-05-09T02:05:23.281Z,54.18
2023-05-09T02:06:23.241Z,54.63
2023-05-09T02:07:23.236Z,52.33
2023-05-09T02:08:23.308Z,54.12
2023-05-09T02:09:23.211Z,56.00
2023-05-09T02:10:23.229Z,56.04
2023-05-09T02:11:23.208Z,55.68
2023-05-09T02:12:23.204Z,52.42
2023-05-09T02:13:23.315Z,52.86
2023-05-09T02:14:23.198Z,59.46
2023-05-09T02:15:23.186Z,56.81
2023-05-09T02:16:23.230Z,54.54
2023-05-09T02:17:23.312Z,52.80
2023-05-09T02:18:23.178Z,54.17
2023-05-09T02:19:23.159Z,53.90
2023-05-09T02:20:23.150Z,54.34
2023-05-09T02:21:23.151Z,54.71
2023-05-09T02:22:23.132Z,55.26
2023-05-09T02:23:23.124Z,54.99
2023-05-09T02:24:23.271Z,53.08
2023-05-09T02:25:23.150Z,58.56
2023-05-09T02:26:23.119Z,56.03
2023-05-09T02:27:23.095Z,58.19
2023-05-09T02:28:23.088Z,56.36
2023-05-09T02:29:23.089Z,57.74
2023-05-09T02:30:23.077Z,55.57
2023-05-09T02:31:23.115Z,55.20
2023-05-09T02:32:23.078Z,56.33
2023-05-09T02:33:23.061Z,54.26
2023-05-09T02:34:23.050Z,54.71
2023-05-09T02:35:23.052Z,55.87
2023-05-09T02:36:23.068Z,54.39
2023-05-09T02:37:23.031Z,54.09
2023-05-09T02:38:23.023Z,54.88
2023-05-09T02:39:23.021Z,55.09
2023-05-09T02:40:23.017Z,56.01
2023-05-09T02:41:23.011Z,55.61
2023-05-09T02:42:23.020Z,54.46
2023-05-09T02:43:22.993Z,54.48
2023-05-09T02:44:22.989Z,56.16
2023-05-09T02:45:22.993Z,57.12
2023-05-09T02:46:23.064Z,57.16
2023-05-09T02:47:23.014Z,57.53
2023-05-09T02:48:22.980Z,57.46
2023-05-09T02:49:31.362Z,57.02
2023-05-09T02:50:24.959Z,57.39
2023-05-09T02:51:22.961Z,57.86
2023-05-09T02:52:22.938Z,55.19
2023-05-09T02:53:22.932Z,56.96
2023-05-09T02:54:22.916Z,56.77
2023-05-09T02:55:22.910Z,56.45
2023-05-09T02:56:23.030Z,57.50
2023-05-09T02:57:22.937Z,58.45
2023-05-09T02:58:22.927Z,57.27
2023-05-09T02:59:22.897Z,57.52
2023-05-09T03:00:22.868Z,58.15
2023-05-09T03:01:22.990Z,56.65
2023-05-09T03:02:22.889Z,55.61
2023-05-09T03:03:22.926Z,58.13
2023-05-09T03:04:22.863Z,57.56
2023-05-09T03:05:22.869Z,59.76
2023-05-09T03:06:22.839Z,57.89
2023-05-09T03:07:22.825Z,57.60
2023-05-09T03:08:22.899Z,58.62
2023-05-09T03:09:22.827Z,58.27
2023-05-09T03:10:22.808Z,58.43
2023-05-09T03:11:22.821Z,59.02
2023-05-09T03:12:22.920Z,58.89
2023-05-09T03:13:22.874Z,58.01
2023-05-09T03:14:22.794Z,57.52
2023-05-09T03:15:22.796Z,58.11
2023-05-09T03:16:22.857Z,56.25
2023-05-09T03:17:22.772Z,58.58
2023-05-09T03:18:22.763Z,58.66
2023-05-09T03:19:22.792Z,57.67
2023-05-09T03:20:22.756Z,58.06
2023-05-09T03:21:22.759Z,57.68
2023-05-09T03:22:22.770Z,58.60
2023-05-09T03:23:22.728Z,58.25
2023-05-09T03:24:22.749Z,57.87
2023-05-09T03:25:22.722Z,58.85
2023-05-09T03:26:22.724Z,57.83
2023-05-09T03:27:22.716Z,57.29
2023-05-09T03:28:22.849Z,57.34
2023-05-09T03:29:22.711Z,57.23
2023-05-09T03:30:22.710Z,56.63
2023-05-09T03:31:22.744Z,56.45
2023-05-09T03:32:23.700Z,57.49
2023-05-09T03:33:22.698Z,58.51
2023-05-09T03:34:22.684Z,59.17
2023-05-09T03:35:22.677Z,58.38
2023-05-09T03:36:22.652Z,58.51
2023-05-09T03:37:23.592Z,58.55
2023-05-09T03:38:22.643Z,57.62
2023-05-09T03:39:22.665Z,58.45
2023-05-09T03:40:22.648Z,58.61
2023-05-09T03:41:22.640Z,57.92
2023-05-09T03:42:22.632Z,57.98
2023-05-09T03:43:22.655Z,57.93
2023-05-09T03:44:23.003Z,58.61
2023-05-09T03:45:22.614Z,58.52
2023-05-09T03:46:22.645Z,58.93
2023-05-09T03:47:22.586Z,58.87
2023-05-09T03:48:22.592Z,58.14
2023-05-09T03:49:22.581Z,58.30
2023-05-09T03:50:22.570Z,59.27
2023-05-09T03:51:22.609Z,57.67
2023-05-09T03:52:22.573Z,58.45
2023-05-09T03:53:22.553Z,57.27
2023-05-09T03:54:22.559Z,59.70
2023-05-09T03:55:22.546Z,59.22
2023-05-09T03:56:22.575Z,58.50
2023-05-09T03:57:22.531Z,58.00
2023-05-09T03:58:22.527Z,58.23
2023-05-09T03:59:22.540Z,58.68
2023-05-09T04:00:22.626Z,59.77
2023-05-09T04:01:22.510Z,60.35
2023-05-09T04:02:22.601Z,60.43
2023-05-09T04:03:22.574Z,58.91
2023-05-09T04:04:22.487Z,57.19
2023-05-09T04:05:22.486Z,58.62
2023-05-09T04:06:22.480Z,58.97
2023-05-09T04:07:22.480Z,58.17
2023-05-09T04:08:22.477Z,58.77
2023-05-09T04:09:22.472Z,60.03
2023-05-09T04:10:22.452Z,59.16
2023-05-09T04:11:22.452Z,58.34
2023-05-09T04:12:22.460Z,57.73
2023-05-09T04:13:22.475Z,60.04
2023-05-09T04:14:22.428Z,59.76
2023-05-09T04:15:22.416Z,60.10
2023-05-09T04:16:22.561Z,59.42
2023-05-09T04:17:22.449Z,60.89
2023-05-09T04:18:22.410Z,60.31
2023-05-09T04:19:22.404Z,60.54
2023-05-09T04:20:22.391Z,59.75
2023-05-09T04:21:22.391Z,59.78
2023-05-09T04:22:22.406Z,59.70
2023-05-09T04:23:22.368Z,60.59
2023-05-09T04:24:22.367Z,62.45
2023-05-09T04:25:22.375Z,61.47
2023-05-09T04:26:22.364Z,62.47
2023-05-09T04:27:22.344Z,61.18
2023-05-09T04:28:22.382Z,61.05
2023-05-09T04:29:22.326Z,60.07
2023-05-09T04:30:22.356Z,60.65
2023-05-09T04:31:22.376Z,60.73
2023-05-09T04:32:22.421Z,62.30
2023-05-09T04:33:22.301Z,60.90
2023-05-09T04:34:22.302Z,60.22
2023-05-09T04:35:22.692Z,59.80
2023-05-09T04:36:22.292Z,61.83
2023-05-09T04:37:22.309Z,62.05
2023-05-09T04:38:22.281Z,60.62
2023-05-09T04:39:22.274Z,60.42
2023-05-09T04:40:22.560Z,62.13
2023-05-09T04:41:22.299Z,61.30
2023-05-09T04:42:22.259Z,61.44
2023-05-09T04:43:22.265Z,62.51
2023-05-09T04:44:22.245Z,61.32
2023-05-09T04:45:22.240Z,59.16
2023-05-09T04:46:24.284Z,61.14
2023-05-09T04:47:22.359Z,60.21
2023-05-09T04:48:22.327Z,61.88
2023-05-09T04:49:22.209Z,61.95
2023-05-09T04:50:22.215Z,61.73
2023-05-09T04:51:22.216Z,60.99
2023-05-09T04:52:22.255Z,60.16
2023-05-09T04:53:22.183Z,61.01
2023-05-09T04:54:22.267Z,61.28
2023-05-09T04:55:22.174Z,61.08
2023-05-09T04:56:22.186Z,60.48
2023-05-09T04:57:22.197Z,61.06
2023-05-09T04:58:22.180Z,59.70
2023-05-09T04:59:22.213Z,60.70
2023-05-09T05:00:22.158Z,60.18
2023-05-09T05:01:22.175Z,61.48
2023-05-09T05:02:22.166Z,60.79
2023-05-09T05:03:22.289Z,60.16
2023-05-09T05:04:22.243Z,59.77
2023-05-09T05:05:24.926Z,61.15
2023-05-09T05:06:23.111Z,60.09
2023-05-09T05:07:22.102Z,60.15
2023-05-09T05:08:22.117Z,59.27
2023-05-09T05:09:22.107Z,58.23
2023-05-09T05:10:22.107Z,58.64
2023-05-09T05:11:22.072Z,59.17
2023-05-09T05:12:22.075Z,59.18
2023-05-09T05:13:22.169Z,60.15
2023-05-09T05:14:22.095Z,59.24
2023-05-09T05:15:22.058Z,59.15
2023-05-09T05:16:22.105Z,59.74
2023-05-09T05:17:22.054Z,60.99
2023-05-09T05:18:22.031Z,60.05
2023-05-09T05:19:22.112Z,59.80
2023-05-09T05:20:22.136Z,59.09
2023-05-09T05:21:22.036Z,58.94
2023-05-09T05:22:22.024Z,59.44
2023-05-09T05:23:21.997Z,59.62
2023-05-09T05:24:22.001Z,60.94
2023-05-09T05:25:22.026Z,61.51
2023-05-09T05:26:21.989Z,61.92
2023-05-09T05:27:21.973Z,60.67
2023-05-09T05:28:21.964Z,61.66
2023-05-09T05:29:21.960Z,60.49
2023-05-09T05:30:22.005Z,60.96
2023-05-09T05:31:21.996Z,59.89
2023-05-09T05:32:22.941Z,59.61
2023-05-09T05:33:21.954Z,60.13
2023-05-09T05:34:21.940Z,59.29
2023-05-09T05:35:21.912Z,59.24
2023-05-09T05:36:22.019Z,59.80
2023-05-09T05:37:21.920Z,59.90
2023-05-09T05:38:21.912Z,57.99
2023-05-09T05:39:21.974Z,60.84
2023-05-09T05:40:21.895Z,59.49
2023-05-09T05:41:21.876Z,58.98
2023-05-09T05:42:21.879Z,59.80
2023-05-09T05:43:21.881Z,60.22
2023-05-09T05:44:21.862Z,60.18
2023-05-09T05:45:21.853Z,58.90
2023-05-09T05:46:21.929Z,57.77
2023-05-09T05:47:21.856Z,58.35
2023-05-09T05:48:21.840Z,57.54
2023-05-09T05:49:21.816Z,56.94
2023-05-09T05:50:21.821Z,57.31
2023-05-09T05:51:21.795Z,56.60
2023-05-09T05:52:21.907Z,56.10
2023-05-09T05:53:21.799Z,56.06
2023-05-09T05:54:21.785Z,56.78
2023-05-09T05:55:21.793Z,57.73
2023-05-09T05:56:21.781Z,57.20
2023-05-09T05:57:21.799Z,56.56
2023-05-09T05:58:21.770Z,56.23
2023-05-09T05:59:21.749Z,57.20
2023-05-09T06:00:21.754Z,56.41
2023-05-09T06:01:21.731Z,55.52
2023-05-09T06:02:21.801Z,56.09
2023-05-09T06:03:21.844Z,56.53
2023-05-09T06:04:21.899Z,56.45
2023-05-09T06:05:21.722Z,56.75
2023-05-09T06:06:21.693Z,57.07
2023-05-09T06:07:21.724Z,56.79
2023-05-09T06:08:21.800Z,57.68
2023-05-09T06:09:21.717Z,58.34
2023-05-09T06:10:21.703Z,57.86
2023-05-09T06:11:21.696Z,57.26
2023-05-09T06:12:21.660Z,57.13
2023-05-09T06:13:21.794Z,57.83
2023-05-09T06:14:21.644Z,58.19
2023-05-09T06:15:21.653Z,57.24
2023-05-09T06:16:21.704Z,57.18
2023-05-09T06:17:21.636Z,56.87
2023-05-09T06:18:21.625Z,55.26
2023-05-09T06:19:21.605Z,58.54
2023-05-09T06:20:21.814Z,59.82
2023-05-09T06:21:21.615Z,58.42
2023-05-09T06:22:21.597Z,55.81
2023-05-09T06:23:21.585Z,56.81
2023-05-09T06:24:34.503Z,55.63
2023-05-09T06:25:23.589Z,58.23
2023-05-09T06:26:21.576Z,57.37
2023-05-09T06:27:21.571Z,55.51
2023-05-09T06:28:21.558Z,54.53
2023-05-09T06:29:21.565Z,56.39
2023-05-09T06:30:26.485Z,56.52
2023-05-09T06:31:25.395Z,56.20
2023-05-09T06:32:21.529Z,57.26
2023-05-09T06:33:21.559Z,55.21
2023-05-09T06:34:21.511Z,56.65
2023-05-09T06:35:21.542Z,54.61
2023-05-09T06:36:21.542Z,55.31
2023-05-09T06:37:21.497Z,55.08
2023-05-09T06:38:21.491Z,54.66
2023-05-09T06:39:21.484Z,54.11
2023-05-09T06:40:21.575Z,53.81
2023-05-09T06:41:21.524Z,54.75
2023-05-09T06:42:21.511Z,54.59
2023-05-09T06:43:21.462Z,54.72
2023-05-09T06:44:21.459Z,54.86
2023-05-09T06:45:21.540Z,54.90
2023-05-09T06:46:21.625Z,54.91
2023-05-09T06:47:21.442Z,54.71
2023-05-09T06:48:21.435Z,52.98
2023-05-09T06:49:21.427Z,53.65
2023-05-09T06:50:21.430Z,54.82
2023-05-09T06:51:21.438Z,56.73
2023-05-09T06:52:21.407Z,54.96
2023-05-09T06:53:21.437Z,52.95
2023-05-09T06:54:21.384Z,53.60
2023-05-09T06:55:21.399Z,53.27
2023-05-09T06:56:21.480Z,53.05
2023-05-09T06:57:21.385Z,54.43
2023-05-09T06:58:21.634Z,54.76
2023-05-09T06:59:21.367Z,53.46
2023-05-09T07:00:21.363Z,53.73
2023-05-09T07:01:21.421Z,55.35
2023-05-09T07:02:21.370Z,55.82
2023-05-09T07:03:21.825Z,53.34
2023-05-09T07:04:21.345Z,55.14
2023-05-09T07:05:21.362Z,53.01
2023-05-09T07:06:21.323Z,52.00
2023-05-09T07:07:21.301Z,53.00
2023-05-09T07:08:21.327Z,53.92
2023-05-09T07:09:21.317Z,53.28
2023-05-09T07:10:21.280Z,53.05
2023-05-09T07:11:21.297Z,52.38
2023-05-09T07:12:21.271Z,54.25
2023-05-09T07:13:21.441Z,53.80
2023-05-09T07:14:21.269Z,52.48
2023-05-09T07:15:32.365Z,54.28
2023-05-09T07:16:23.301Z,54.91
2023-05-09T07:17:24.026Z,58.68
2023-05-09T07:18:22.262Z,56.05
2023-05-09T07:19:21.237Z,54.33
2023-05-09T07:20:21.237Z,55.27
2023-05-09T07:21:21.212Z,54.86
2023-05-09T07:22:21.246Z,56.17
2023-05-09T07:23:21.232Z,55.35
2023-05-09T07:24:21.199Z,56.02
2023-05-09T07:25:21.185Z,57.14
2023-05-09T07:26:21.203Z,55.86
2023-05-09T07:27:21.170Z,56.94
2023-05-09T07:28:21.273Z,56.56
2023-05-09T07:29:21.182Z,53.78
2023-05-09T07:30:21.162Z,54.52
2023-05-09T07:31:21.176Z,56.55
2023-05-09T07:32:21.157Z,56.95
2023-05-09T07:33:21.143Z,55.45
2023-05-09T07:34:21.145Z,56.60
2023-05-09T07:35:21.154Z,53.94
2023-05-09T07:36:21.115Z,56.60
2023-05-09T07:37:21.109Z,56.04
2023-05-09T07:38:21.131Z,54.66
2023-05-09T07:39:21.079Z,55.03
2023-05-09T07:40:21.114Z,53.41
2023-05-09T07:41:21.077Z,56.52
2023-05-09T07:42:21.071Z,55.44
2023-05-09T07:43:21.066Z,56.09
2023-05-09T07:44:21.170Z,55.64
2023-05-09T07:45:23.748Z,56.61
2023-05-09T07:46:21.286Z,58.52
2023-05-09T07:47:21.023Z,56.64
2023-05-09T07:48:21.015Z,57.60
2023-05-09T07:49:21.013Z,57.48
2023-05-09T07:50:21.017Z,57.62
2023-05-09T07:51:21.022Z,57.51
2023-05-09T07:52:21.005Z,58.62
2023-05-09T07:53:20.987Z,59.15
2023-05-09T07:54:20.994Z,57.16
2023-05-09T07:55:20.985Z,57.48
2023-05-09T07:56:20.975Z,56.67
2023-05-09T07:57:21.968Z,55.80
2023-05-09T07:58:20.979Z,56.84
2023-05-09T07:59:20.955Z,56.20
2023-05-09T08:00:21.036Z,56.53
2023-05-09T08:01:20.933Z,56.38
2023-05-09T08:02:20.947Z,55.45
2023-05-09T08:03:21.094Z,56.81
2023-05-09T08:04:20.931Z,54.29
2023-05-09T08:05:20.937Z,56.65
2023-05-09T08:06:20.896Z,57.04
2023-05-09T08:07:20.889Z,56.12
2023-05-09T08:08:21.036Z,56.87
2023-05-09T08:09:20.870Z,56.57
2023-05-09T08:10:20.861Z,56.34
2023-05-09T08:11:20.870Z,57.84
2023-05-09T08:12:20.882Z,57.54
2023-05-09T08:13:20.943Z,59.43
2023-05-09T08:14:20.856Z,58.33
2023-05-09T08:15:20.849Z,55.96
2023-05-09T08:16:21.004Z,58.14
2023-05-09T08:17:20.870Z,57.61
2023-05-09T08:18:20.874Z,57.32
2023-05-09T08:19:20.827Z,58.82
2023-05-09T08:20:20.808Z,56.53
2023-05-09T08:21:22.133Z,57.29
2023-05-09T08:22:21.807Z,58.70
2023-05-09T08:23:20.806Z,56.82
2023-05-09T08:24:20.794Z,59.15
2023-05-09T08:25:20.814Z,57.20
2023-05-09T08:26:20.768Z,57.39
2023-05-09T08:27:20.777Z,57.79
2023-05-09T08:28:21.712Z,58.32
2023-05-09T08:29:20.785Z,57.09
2023-05-09T08:30:20.745Z,56.38
2023-05-09T08:31:20.778Z,57.32
2023-05-09T08:32:20.824Z,55.34
2023-05-09T08:33:20.723Z,57.05
2023-05-09T08:34:20.726Z,57.27
2023-05-09T08:35:20.713Z,55.21
2023-05-09T08:36:20.696Z,56.74
2023-05-09T08:37:20.705Z,58.95
2023-05-09T08:38:20.692Z,55.92
2023-05-09T08:39:20.688Z,56.15
2023-05-09T08:40:20.690Z,57.46
2023-05-09T08:41:20.657Z,58.04
2023-05-09T08:42:20.659Z,57.99
2023-05-09T08:43:20.648Z,57.11
2023-05-09T08:44:20.644Z,56.80
2023-05-09T08:45:20.671Z,56.97
2023-05-09T08:46:20.665Z,56.42
2023-05-09T08:47:20.635Z,54.62
2023-05-09T08:48:20.710Z,53.98
2023-05-09T08:49:20.613Z,55.35
2023-05-09T08:50:20.601Z,59.14
2023-05-09T08:51:20.622Z,56.93
2023-05-09T08:52:20.579Z,56.65
2023-05-09T08:53:20.573Z,57.17
2023-05-09T08:54:22.134Z,54.61
2023-05-09T08:55:21.558Z,54.96
2023-05-09T08:56:20.569Z,54.87
2023-05-09T08:57:20.574Z,55.63
2023-05-09T08:58:20.540Z,54.84
2023-05-09T08:59:20.542Z,52.86
2023-05-09T09:00:21.069Z,53.54
2023-05-09T09:01:20.536Z,53.88
2023-05-09T09:02:20.530Z,54.45
2023-05-09T09:03:20.503Z,53.59
2023-05-09T09:04:20.633Z,52.99
2023-05-09T09:05:39.915Z,55.17
2023-05-09T09:06:22.487Z,55.15
2023-05-09T09:07:20.494Z,53.51
2023-05-09T09:08:20.479Z,53.61
2023-05-09T09:09:20.467Z,52.54
2023-05-09T09:10:20.468Z,54.60
2023-05-09T09:11:20.481Z,54.09
2023-05-09T09:12:20.446Z,53.95
2023-05-09T09:13:20.522Z,57.06
2023-05-09T09:14:20.435Z,55.64
2023-05-09T09:15:20.443Z,53.48
2023-05-09T09:16:20.496Z,52.07
2023-05-09T09:17:20.429Z,55.38
2023-05-09T09:18:20.409Z,55.98
2023-05-09T09:19:20.410Z,55.06
2023-05-09T09:20:20.585Z,54.39
2023-05-09T09:21:20.399Z,56.95
2023-05-09T09:22:20.401Z,55.58
2023-05-09T09:23:20.382Z,55.51
2023-05-09T09:24:20.375Z,53.39
2023-05-09T09:25:20.361Z,54.90
2023-05-09T09:26:20.359Z,57.47
2023-05-09T09:27:20.371Z,55.66
2023-05-09T09:28:20.343Z,56.02
2023-05-09T09:29:20.356Z,54.83
2023-05-09T09:30:20.407Z,56.59
2023-05-09T09:31:20.373Z,55.49
2023-05-09T09:32:20.365Z,55.06
2023-05-09T09:33:21.334Z,55.30
2023-05-09T09:34:20.338Z,55.77
2023-05-09T09:35:20.315Z,55.74
2023-05-09T09:36:20.389Z,57.39
2023-05-09T09:37:20.305Z,56.13
2023-05-09T09:38:20.283Z,58.14
2023-05-09T09:39:20.307Z,53.90
2023-05-09T09:40:20.274Z,52.82
2023-05-09T09:41:20.262Z,53.79
2023-05-09T09:42:20.252Z,54.65
2023-05-09T09:43:20.269Z,54.96
2023-05-09T09:44:20.253Z,53.44
2023-05-09T09:45:20.319Z,60.27
2023-05-09T09:46:20.285Z,55.61
2023-05-09T09:47:20.236Z,54.65
2023-05-09T09:48:20.237Z,56.62
2023-05-09T09:49:20.224Z,56.12
2023-05-09T09:50:20.261Z,55.60
2023-05-09T09:51:20.195Z,56.34
2023-05-09T09:52:20.295Z,55.94
2023-05-09T09:53:20.185Z,55.41
2023-05-09T09:54:20.175Z,56.89
2023-05-09T09:55:20.186Z,54.77
2023-05-09T09:56:20.209Z,55.64
2023-05-09T09:57:20.164Z,55.53
2023-05-09T09:58:20.156Z,55.49
2023-05-09T09:59:20.153Z,53.29
2023-05-09T10:00:20.144Z,55.74
2023-05-09T10:01:20.194Z,57.57
2023-05-09T10:02:20.128Z,59.39
2023-05-09T10:03:20.258Z,57.57
2023-05-09T10:04:20.142Z,57.42
2023-05-09T10:05:20.119Z,55.65
2023-05-09T10:06:20.141Z,56.44
2023-05-09T10:07:20.111Z,56.31
2023-05-09T10:08:20.203Z,57.50
2023-05-09T10:09:20.127Z,56.49
2023-05-09T10:10:20.116Z,56.30
2023-05-09T10:11:20.089Z,54.29
2023-05-09T10:12:20.083Z,56.66
2023-05-09T10:13:21.228Z,58.17
2023-05-09T10:14:20.058Z,58.26
2023-05-09T10:15:20.084Z,57.42
2023-05-09T10:16:25.927Z,57.96
2023-05-09T10:17:22.185Z,56.93
2023-05-09T10:18:21.260Z,59.32
2023-05-09T10:19:20.104Z,58.23
2023-05-09T10:20:20.025Z,56.14
2023-05-09T10:21:20.024Z,57.07
2023-05-09T10:22:20.037Z,56.94
2023-05-09T10:23:20.021Z,56.09
2023-05-09T10:24:20.091Z,56.74
2023-05-09T10:25:20.019Z,54.89
2023-05-09T10:26:19.978Z,56.39
2023-05-09T10:27:19.998Z,57.10
2023-05-09T10:28:19.979Z,55.54
2023-05-09T10:29:19.984Z,55.68
2023-05-09T10:30:20.003Z,57.10
2023-05-09T10:31:19.968Z,56.06
2023-05-09T10:32:19.969Z,56.23
2023-05-09T10:33:19.944Z,55.29
2023-05-09T10:34:19.950Z,57.62
2023-05-09T10:35:19.939Z,56.83
2023-05-09T10:36:19.914Z,57.49
2023-05-09T10:37:19.925Z,58.07
2023-05-09T10:38:19.915Z,57.95
2023-05-09T10:39:20.124Z,56.09
2023-05-09T10:40:20.089Z,56.52
2023-05-09T10:41:20.251Z,56.97
2023-05-09T10:42:19.889Z,57.41
2023-05-09T10:43:19.887Z,56.98
2023-05-09T10:44:19.867Z,55.41
2023-05-09T10:45:19.868Z,56.26
2023-05-09T10:46:19.872Z,59.28
2023-05-09T10:47:19.900Z,58.95
2023-05-09T10:48:19.837Z,57.29
2023-05-09T10:49:19.829Z,58.19
2023-05-09T10:50:19.841Z,56.93
2023-05-09T10:51:19.822Z,57.24
2023-05-09T10:52:19.818Z,57.31
2023-05-09T10:53:19.792Z,57.18
2023-05-09T10:54:19.792Z,58.09
2023-05-09T10:55:19.784Z,57.55
2023-05-09T10:56:19.912Z,56.21
2023-05-09T10:57:19.773Z,56.44
2023-05-09T10:58:19.787Z,57.29
2023-05-09T10:59:19.760Z,56.78
2023-05-09T11:00:19.760Z,56.45
2023-05-09T11:01:19.811Z,58.74
2023-05-09T11:02:19.733Z,57.60
2023-05-09T11:03:19.805Z,57.63
2023-05-09T11:04:19.724Z,57.99
2023-05-09T11:05:19.765Z,57.46
2023-05-09T11:06:19.713Z,58.68
2023-05-09T11:07:19.735Z,58.32
2023-05-09T11:08:19.695Z,58.92
2023-05-09T11:09:19.695Z,57.79
2023-05-09T11:10:19.692Z,58.56
2023-05-09T11:11:19.688Z,57.74
2023-05-09T11:12:19.778Z,58.59
2023-05-09T11:13:19.770Z,57.37
2023-05-09T11:14:19.674Z,57.66
2023-05-09T11:15:19.660Z,58.20
2023-05-09T11:16:19.686Z,58.72
2023-05-09T11:17:19.668Z,58.32
2023-05-09T11:18:19.637Z,56.72
2023-05-09T11:19:19.634Z,57.51
2023-05-09T11:20:19.624Z,59.32
2023-05-09T11:21:19.621Z,59.46
2023-05-09T11:22:19.642Z,59.16
2023-05-09T11:23:19.675Z,59.44
2023-05-09T11:24:19.606Z,59.15
2023-05-09T11:25:19.592Z,60.11
2023-05-09T11:26:19.580Z,60.00
2023-05-09T11:27:19.580Z,60.20
2023-05-09T11:28:19.689Z,60.32
2023-05-09T11:29:19.584Z,60.13
2023-05-09T11:30:19.589Z,59.93
2023-05-09T11:31:19.597Z,59.21
2023-05-09T11:32:19.540Z,59.05
2023-05-09T11:33:19.546Z,60.39
2023-05-09T11:34:19.565Z,59.88
2023-05-09T11:35:19.546Z,59.94
2023-05-09T11:36:19.522Z,59.01
2023-05-09T11:37:19.527Z,58.44
2023-05-09T11:38:19.509Z,59.07
2023-05-09T11:39:19.540Z,56.77
2023-05-09T11:40:19.502Z,59.45
2023-05-09T11:41:19.489Z,57.72
2023-05-09T11:42:19.482Z,58.04
2023-05-09T11:43:19.476Z,58.29
2023-05-09T11:44:19.569Z,58.68
2023-05-09T11:45:19.520Z,58.02
2023-05-09T11:46:19.523Z,59.23
2023-05-09T11:47:19.448Z,58.27
2023-05-09T11:48:19.459Z,58.63
2023-05-09T11:49:19.486Z,58.71
2023-05-09T11:50:19.503Z,59.07
2023-05-09T11:51:19.460Z,58.55
2023-05-09T11:52:19.418Z,59.67
2023-05-09T11:53:19.411Z,60.19
2023-05-09T11:54:19.395Z,59.71
2023-05-09T11:55:19.744Z,59.21
2023-05-09T11:56:19.382Z,59.16
2023-05-09T11:57:19.400Z,59.17
2023-05-09T11:58:19.368Z,58.25
2023-05-09T11:59:19.365Z,58.96
2023-05-09T12:00:19.366Z,57.66
2023-05-09T12:01:19.367Z,60.01
2023-05-09T12:02:19.406Z,57.98
2023-05-09T12:03:19.529Z,58.91
2023-05-09T12:04:19.410Z,58.19
2023-05-09T12:05:19.373Z,56.99
2023-05-09T12:06:19.314Z,58.87
2023-05-09T12:07:19.316Z,57.55
2023-05-09T12:08:19.298Z,58.95
2023-05-09T12:09:19.301Z,56.76
2023-05-09T12:10:19.333Z,57.10
2023-05-09T12:11:19.306Z,56.63
2023-05-09T12:12:19.287Z,56.58
2023-05-09T12:13:19.320Z,56.37
2023-05-09T12:14:19.280Z,56.43
2023-05-09T12:15:19.588Z,57.92
2023-05-09T12:16:19.406Z,57.33
2023-05-09T12:17:19.270Z,58.11
2023-05-09T12:18:19.257Z,57.77
2023-05-09T12:19:19.233Z,57.78
2023-05-09T12:20:19.249Z,58.70
2023-05-09T12:21:19.230Z,58.49
2023-05-09T12:22:19.247Z,59.30
2023-05-09T12:23:19.217Z,58.76
2023-05-09T12:24:19.233Z,58.77
2023-05-09T12:25:19.205Z,57.94
2023-05-09T12:26:19.206Z,57.23
2023-05-09T12:27:19.181Z,58.34
2023-05-09T12:28:19.177Z,57.63
2023-05-09T12:29:19.163Z,59.85
2023-05-09T12:30:19.156Z,59.06
2023-05-09T12:31:19.211Z,60.54
2023-05-09T12:32:19.240Z,58.19
2023-05-09T12:33:19.143Z,58.88
2023-05-09T12:34:19.134Z,58.03
2023-05-09T12:35:19.123Z,58.50
2023-05-09T12:36:19.157Z,57.66
2023-05-09T12:37:19.152Z,58.02
2023-05-09T12:38:19.131Z,58.31
2023-05-09T12:39:19.143Z,57.61
2023-05-09T12:40:19.090Z,58.16
2023-05-09T12:41:35.125Z,58.46
2023-05-09T12:42:21.112Z,59.71
2023-05-09T12:43:19.086Z,59.19
2023-05-09T12:44:19.069Z,59.70
2023-05-09T12:45:19.168Z,59.63
2023-05-09T12:46:19.197Z,58.81
2023-05-09T12:47:19.072Z,57.96
2023-05-09T12:48:19.161Z,57.60
2023-05-09T12:49:19.050Z,58.06
2023-05-09T12:50:19.030Z,58.78
2023-05-09T12:51:19.038Z,58.23
2023-05-09T12:52:19.031Z,58.89